Time;durP1;ratioP1;P1;durP2;ratioP2;P2;SDS_P1;SDS_P2;PMS_P1;PMS_P2;Temp;Humidity;BMP_temperature;BMP_pressure;BME280_temperature;BME280_humidity;BME280_pressure;Samples;Min_cycle;Max_cycle;Signal;HPM_P1;HPM_P2
2022/10/04 00:02:26;;;;;;;30.50;27.98;;;;;;;15.71;60.96;102269.13;4987368;28;20114;-74
2022/10/04 00:05:07;;;;;;;31.35;29.15;;;;;;;15.69;61.46;102265.81;4994796;28;20112;-75
2022/10/04 00:07:37;;;;;;;30.58;28.73;;;;;;;15.68;61.09;102263.31;4996066;28;20038;-74
2022/10/04 00:10:14;;;;;;;30.40;28.33;;;;;;;15.68;61.25;102266.84;5001788;28;20517;-74
2022/10/04 00:12:47;;;;;;;29.40;27.23;;;;;;;15.67;61.26;102262.44;4998735;28;20039;-74
2022/10/04 00:15:29;;;;;;;29.45;27.80;;;;;;;15.66;61.16;102257.25;4994990;28;20041;-74
2022/10/04 00:18:30;;;;;;;32.20;30.25;;;;;;;15.66;61.08;102254.53;4998883;28;20092;-74
2022/10/04 00:20:59;;;;;;;30.38;28.23;;;;;;;15.65;61.18;102248.28;5011142;28;20418;-74
2022/10/04 00:23:24;;;;;;;29.45;27.73;;;;;;;15.64;61.06;102246.59;5012225;28;20034;-74
2022/10/04 00:25:52;;;;;;;30.55;28.65;;;;;;;15.64;61.06;102243.88;5008591;28;20108;-74
2022/10/04 00:28:20;;;;;;;28.17;26.27;;;;;;;15.63;60.77;102246.84;5007443;28;20030;-74
2022/10/04 00:31:05;;;;;;;29.58;27.77;;;;;;;15.63;61.03;102241.41;5011650;28;20315;-74
2022/10/04 00:33:39;;;;;;;29.52;27.73;;;;;;;15.61;61.10;102246.25;5012284;28;20045;-74
2022/10/04 00:36:22;;;;;;;30.20;27.92;;;;;;;15.59;60.85;102236.41;5012468;28;20022;-74
2022/10/04 00:39:03;;;;;;;28.65;26.98;;;;;;;15.57;60.78;102244.03;5003389;28;20037;-74
2022/10/04 00:41:46;;;;;;;28.73;26.70;;;;;;;15.55;61.33;102235.25;4998870;28;20035;-74
2022/10/04 00:44:32;;;;;;;30.63;28.65;;;;;;;15.54;61.23;102233.59;4992359;28;20445;-74
2022/10/04 00:47:00;;;;;;;30.30;28.60;;;;;;;15.52;61.26;102226.72;5007355;28;20131;-74
2022/10/04 00:49:31;;;;;;;30.75;28.65;;;;;;;15.50;60.95;102228.88;4995543;28;20154;-74
2022/10/04 00:52:06;;;;;;;31.73;29.35;;;;;;;15.49;61.10;102228.03;5006182;28;20081;-75
2022/10/04 00:54:40;;;;;;;30.45;28.50;;;;;;;15.48;61.42;102231.00;5011704;28;20029;-74
2022/10/04 00:57:31;;;;;;;30.08;28.15;;;;;;;15.46;61.31;102212.19;5008772;28;20030;-74
2022/10/04 01:00:18;;;;;;;30.60;28.38;;;;;;;15.47;60.88;102222.03;4986380;28;20038;-74
2022/10/04 01:03:29;;;;;;;30.67;28.60;;;;;;;15.45;61.16;102226.03;4993358;28;20514;-74
2022/10/04 01:05:58;;;;;;;30.35;27.95;;;;;;;15.43;61.21;102209.94;4993011;28;20053;-74
2022/10/04 01:08:37;;;;;;;29.60;27.58;;;;;;;15.43;61.08;102209.94;5008154;28;20026;-74
2022/10/04 01:11:12;;;;;;;28.98;27.05;;;;;;;15.41;61.05;102203.91;5011052;28;20026;-74
2022/10/04 01:13:49;;;;;;;30.65;28.42;;;;;;;15.40;60.91;102199.53;5000503;28;20240;-74
2022/10/04 01:16:18;;;;;;;31.00;28.83;;;;;;;15.40;60.86;102191.34;4998213;28;20064;-75
2022/10/04 01:18:45;;;;;;;29.98;28.00;;;;;;;15.38;60.94;102204.38;5010975;28;20037;-74
2022/10/04 01:21:28;;;;;;;31.17;29.00;;;;;;;15.38;61.17;102203.56;5009746;28;20030;-74
2022/10/04 01:23:56;;;;;;;29.17;27.05;;;;;;;15.37;61.41;102210.88;5008705;28;20044;-74
2022/10/04 01:26:28;;;;;;;26.85;25.17;;;;;;;15.35;60.96;102208.41;4993435;28;20057;-74
2022/10/04 01:29:23;;;;;;;31.40;29.17;;;;;;;15.34;60.98;102201.28;4990483;28;20038;-75
2022/10/04 01:31:54;;;;;;;28.88;27.10;;;;;;;15.33;60.88;102207.81;4997570;28;20045;-74
2022/10/04 01:34:25;;;;;;;30.67;28.50;;;;;;;15.32;61.16;102195.28;5006029;28;20034;-75
2022/10/04 01:36:53;;;;;;;30.55;28.08;;;;;;;15.30;61.04;102197.41;4991368;28;20563;-74
2022/10/04 01:39:21;;;;;;;30.52;28.50;;;;;;;15.30;61.18;102199.31;4992999;28;20113;-74
2022/10/04 01:41:58;;;;;;;29.35;27.15;;;;;;;15.29;61.11;102187.56;4994033;28;20467;-74
2022/10/04 01:44:47;;;;;;;29.00;27.15;;;;;;;15.29;61.09;102184.03;4993022;28;20109;-74
2022/10/04 01:48:02;;;;;;;28.27;26.58;;;;;;;15.28;60.91;102179.66;4992766;28;20424;-74
2022/10/04 01:50:32;;;;;;;30.45;28.30;;;;;;;15.26;61.05;102173.63;5004523;28;20038;-74
2022/10/04 01:53:19;;;;;;;29.67;27.88;;;;;;;15.25;60.77;102170.06;5000831;28;20490;-74
2022/10/04 01:55:50;;;;;;;28.85;26.83;;;;;;;15.25;61.19;102171.97;4993024;28;20157;-75
2022/10/04 01:58:41;;;;;;;28.10;26.40;;;;;;;15.25;60.91;102166.53;5006072;28;20478;-75
2022/10/04 02:01:15;;;;;;;30.45;28.58;;;;;;;15.23;60.82;102165.94;5010557;28;20065;-74
2022/10/04 02:04:14;;;;;;;27.77;25.15;;;;;;;15.22;61.18;102159.66;4999225;28;20037;-74
2022/10/04 02:06:42;;;;;;;28.33;26.35;;;;;;;15.21;60.79;102160.72;4993761;28;20034;-74
2022/10/04 02:09:18;;;;;;;28.13;26.30;;;;;;;15.19;60.84;102154.69;4992882;28;20101;-74
2022/10/04 02:11:51;;;;;;;28.77;26.92;;;;;;;15.19;61.05;102151.97;5011696;28;20105;-75
2022/10/04 02:14:23;;;;;;;28.85;26.77;;;;;;;15.18;61.11;102133.16;4996618;28;20084;-74
2022/10/04 02:16:52;;;;;;;28.77;26.70;;;;;;;15.17;60.95;102128.78;4991848;28;20379;-74
2022/10/04 02:19:22;;;;;;;29.35;27.27;;;;;;;15.17;60.85;102126.06;4996993;28;20067;-74
2022/10/04 02:21:48;;;;;;;28.33;26.60;;;;;;;15.15;60.94;102121.69;5007144;28;20026;-74
2022/10/04 02:24:15;;;;;;;29.33;27.40;;;;;;;15.15;60.81;102120.88;5001328;28;20030;-74
2022/10/04 02:26:41;;;;;;;28.73;26.42;;;;;;;15.15;61.09;102120.88;5006519;28;20089;-74
2022/10/04 02:29:08;;;;;;;28.63;26.70;;;;;;;15.14;61.08;102108.31;4998528;28;20034;-74
2022/10/04 02:34:21;;;;;;;28.27;26.58;;;;;;;15.12;61.05;102105.03;4993981;28;20446;-74
2022/10/04 02:36:49;;;;;;;29.33;27.05;;;;;;;15.11;60.67;102100.63;4993453;28;20035;-74
2022/10/04 02:39:23;;;;;;;29.42;27.63;;;;;;;15.09;60.74;102098.16;5000511;28;20378;-74
2022/10/04 02:42:08;;;;;;;27.15;25.45;;;;;;;15.07;60.91;102086.69;5011452;28;20089;-75
2022/10/04 02:44:41;;;;;;;28.33;26.58;;;;;;;15.08;60.80;102084.78;5007514;28;20054;-74
2022/10/04 02:47:20;;;;;;;29.38;27.38;;;;;;;15.06;61.02;102073.31;4991357;28;20062;-74
2022/10/04 02:49:52;;;;;;;28.55;26.75;;;;;;;15.06;60.79;102067.88;4991878;28;20022;-75
2022/10/04 02:52:20;;;;;;;28.30;26.45;;;;;;;15.04;60.81;102057.22;5006334;28;20026;-74
2022/10/04 02:55:03;;;;;;;28.33;26.45;;;;;;;15.03;60.75;102050.13;5009976;28;20501;-74
2022/10/04 02:57:33;;;;;;;27.45;25.92;;;;;;;15.01;60.48;102054.97;4991957;28;20109;-74
2022/10/04 03:00:26;;;;;;;29.25;27.23;;;;;;;15.00;60.88;102053.34;4991510;28;20048;-74
2022/10/04 03:03:16;;;;;;;27.02;25.52;;;;;;;14.99;60.77;102069.88;5000401;28;20030;-75
2022/10/04 03:05:52;;;;;;;29.08;27.08;;;;;;;14.97;60.78;102056.53;4993269;28;20054;-75
2022/10/04 03:08:19;;;;;;;29.05;26.83;;;;;;;14.96;60.66;102054.88;5006399;28;20534;-75
2022/10/04 03:10:44;;;;;;;27.65;26.00;;;;;;;14.95;60.76;102050.50;5009032;28;20030;-75
2022/10/04 03:13:12;;;;;;;29.30;27.40;;;;;;;14.95;60.61;102050.50;4985952;28;20622;-75
2022/10/04 03:15:38;;;;;;;28.25;26.20;;;;;;;14.92;60.78;102051.81;5009747;28;20125;-75
2022/10/04 03:18:04;;;;;;;29.30;27.40;;;;;;;14.92;60.86;102043.66;5007831;28;20042;-75
2022/10/04 03:20:29;;;;;;;27.85;26.00;;;;;;;14.91;60.72;102050.13;5009103;28;20139;-74
2022/10/04 03:22:56;;;;;;;26.80;25.25;;;;;;;14.90;60.75;102044.97;4997900;28;20070;-74
2022/10/04 03:25:27;;;;;;;27.58;25.92;;;;;;;14.89;60.60;102046.00;4991841;28;20041;-75
2022/10/04 03:27:52;;;;;;;29.00;27.15;;;;;;;14.88;60.72;102034.31;4991959;28;20089;-74
2022/10/04 03:30:19;;;;;;;28.88;26.90;;;;;;;14.87;60.80;102032.66;4995394;28;20046;-74
2022/10/04 03:32:45;;;;;;;27.58;25.77;;;;;;;14.86;60.44;102036.44;4992367;28;20038;-74
2022/10/04 03:35:27;;;;;;;28.83;26.83;;;;;;;14.84;60.39;102027.72;4991363;28;20045;-74
2022/10/04 03:37:55;;;;;;;29.27;26.80;;;;;;;14.84;60.46;102024.13;5002698;28;20065;-74
2022/10/04 03:40:26;;;;;;;27.13;25.55;;;;;;;14.83;60.41;102026.03;5000477;28;20034;-74
2022/10/04 03:42:53;;;;;;;29.75;27.55;;;;;;;14.80;60.76;102015.63;5010903;28;20112;-75
2022/10/04 03:45:21;;;;;;;26.92;25.30;;;;;;;14.80;60.53;102031.13;5008583;28;20041;-74
2022/10/04 03:47:49;;;;;;;27.55;25.65;;;;;;;14.78;60.40;102023.22;5006171;28;20033;-75
2022/10/04 03:50:19;;;;;;;29.63;27.63;;;;;;;14.78;60.34;102004.16;5003817;28;20078;-75
2022/10/04 03:52:52;;;;;;;28.75;26.45;;;;;;;14.76;60.28;102009.00;5003946;28;20057;-75
2022/10/04 03:55:18;;;;;;;28.80;26.90;;;;;;;14.75;60.66;102001.13;4994620;28;20465;-74
2022/10/04 03:57:44;;;;;;;28.50;26.88;;;;;;;14.74;60.40;102002.16;4995087;28;20474;-74
2022/10/04 04:00:15;;;;;;;30.15;27.95;;;;;;;14.72;60.33;102013.31;5003779;28;20030;-74
2022/10/04 04:02:57;;;;;;;29.17;27.30;;;;;;;14.72;60.57;102007.84;5003778;28;20064;-75
2022/10/04 04:05:30;;;;;;;28.73;26.70;;;;;;;14.71;60.50;102006.19;5005643;28;20026;-74
2022/10/04 04:08:13;;;;;;;29.35;27.55;;;;;;;14.69;60.37;102001.00;4994159;28;20034;-74
2022/10/04 04:10:45;;;;;;;29.02;27.20;;;;;;;14.67;60.55;102005.84;5010419;28;20122;-74
2022/10/04 04:13:49;;;;;;;28.58;26.55;;;;;;;14.65;60.62;102013.41;5003029;28;20490;-74
2022/10/04 04:16:17;;;;;;;28.55;26.80;;;;;;;14.64;60.21;102016.38;5009312;28;20030;-75
2022/10/04 04:18:44;;;;;;;28.85;26.75;;;;;;;14.61;60.26;102017.66;5010745;28;20053;-74
2022/10/04 04:21:15;;;;;;;29.83;27.70;;;;;;;14.60;60.52;102010.59;5010273;28;20030;-74
2022/10/04 04:23:47;;;;;;;27.10;25.42;;;;;;;14.61;60.36;102008.69;4997760;28;20022;-74
2022/10/04 04:26:35;;;;;;;29.25;26.73;;;;;;;14.59;60.24;102011.66;4993444;28;20035;-74
2022/10/04 04:29:04;;;;;;;28.33;26.52;;;;;;;14.57;60.35;102000.19;4993867;28;20474;-74
2022/10/04 04:31:45;;;;;;;31.13;29.00;;;;;;;14.56;60.52;101995.81;5000376;28;20088;-74
2022/10/04 04:34:21;;;;;;;30.38;28.13;;;;;;;14.54;60.47;102003.41;4993884;28;20026;-74
2022/10/04 04:36:47;;;;;;;28.23;26.02;;;;;;;14.53;60.40;101999.00;4993936;28;20049;-75
2022/10/04 04:39:43;;;;;;;29.60;27.48;;;;;;;14.52;60.43;101997.34;4993713;28;20463;-74
2022/10/04 04:42:15;;;;;;;30.20;27.77;;;;;;;14.50;60.38;101999.47;4996206;28;20527;-74
2022/10/04 04:45:06;;;;;;;28.30;26.50;;;;;;;14.49;60.09;101990.47;5008706;28;20030;-75
2022/10/04 04:47:37;;;;;;;28.83;26.83;;;;;;;14.48;60.23;101990.72;5003059;28;20034;-75
2022/10/04 04:50:12;;;;;;;28.50;26.70;;;;;;;14.46;60.47;101979.25;4996042;28;20414;-74
2022/10/04 04:52:39;;;;;;;28.58;26.17;;;;;;;14.45;60.22;101985.75;5011584;28;20092;-75
2022/10/04 04:55:14;;;;;;;27.95;26.02;;;;;;;14.44;60.31;101990.38;4993841;28;20038;-74
2022/10/04 04:57:43;;;;;;;27.90;26.10;;;;;;;14.42;60.25;101992.50;4993811;28;20046;-74
2022/10/04 05:00:16;;;;;;;27.50;25.90;;;;;;;14.41;60.35;101996.28;4993260;28;20069;-74
2022/10/04 05:02:50;;;;;;;28.70;26.15;;;;;;;14.42;60.20;101997.09;4992459;28;20359;-74
2022/10/04 05:05:15;;;;;;;29.77;26.92;;;;;;;14.40;60.46;101988.34;4996470;28;20144;-74
2022/10/04 05:07:42;;;;;;;28.00;26.17;;;;;;;14.38;60.21;101991.31;4994375;28;20471;-75
2022/10/04 05:10:29;;;;;;;29.63;27.33;;;;;;;14.38;60.10;102002.19;5001089;28;20113;-74
2022/10/04 05:12:55;;;;;;;27.65;25.52;;;;;;;14.35;60.41;101991.78;5011831;28;20028;-74
2022/10/04 05:15:21;;;;;;;29.75;27.63;;;;;;;14.34;60.14;101998.28;5009072;28;20046;-74
2022/10/04 05:17:47;;;;;;;28.67;26.33;;;;;;;14.33;60.39;101993.91;5001925;28;20030;-74
2022/10/04 05:20:14;;;;;;;28.58;26.63;;;;;;;14.32;60.38;101988.72;4999729;28;20037;-74
2022/10/04 05:22:45;;;;;;;29.38;27.35;;;;;;;14.31;60.42;101990.59;5008129;28;20041;-74
2022/10/04 05:25:22;;;;;;;28.75;26.50;;;;;;;14.30;60.31;102002.53;5001953;28;20034;-74
2022/10/04 05:27:48;;;;;;;28.52;26.48;;;;;;;14.28;60.10;102005.47;5006637;28;20057;-74
2022/10/04 05:30:48;;;;;;;29.05;27.05;;;;;;;14.28;60.26;102007.38;5007407;28;20155;-74
2022/10/04 05:33:23;;;;;;;27.38;25.48;;;;;;;14.25;60.17;102003.25;5004525;28;20033;-74
2022/10/04 05:36:11;;;;;;;28.02;26.25;;;;;;;14.23;60.34;102002.66;5004260;28;20045;-74
2022/10/04 05:38:49;;;;;;;28.23;26.17;;;;;;;14.22;60.27;102006.44;5006481;28;20030;-74
2022/10/04 05:41:23;;;;;;;28.27;26.38;;;;;;;14.20;60.30;102000.41;5004965;28;20096;-74
2022/10/04 05:43:50;;;;;;;28.10;25.65;;;;;;;14.20;60.35;102018.63;5002612;28;20089;-74
2022/10/04 05:46:18;;;;;;;27.75;25.65;;;;;;;14.19;60.33;102011.53;5004778;28;20402;-74
2022/10/04 05:48:46;;;;;;;25.08;23.35;;;;;;;14.18;60.42;102016.13;5006749;28;20045;-74
2022/10/04 05:51:22;;;;;;;28.25;26.13;;;;;;;14.16;60.26;102004.69;5006910;28;20038;-76
2022/10/04 05:53:48;;;;;;;27.20;25.30;;;;;;;14.15;60.36;102007.63;5002754;28;20508;-75
2022/10/04 05:57:02;;;;;;;25.95;24.35;;;;;;;14.14;60.35;102005.97;5004360;28;20037;-74
2022/10/04 05:59:49;;;;;;;27.20;25.38;;;;;;;14.12;60.27;102011.63;5005332;28;20058;-74
2022/10/04 06:02:35;;;;;;;27.15;25.10;;;;;;;14.09;60.31;102008.56;5005710;28;20088;-74
2022/10/04 06:05:21;;;;;;;25.17;23.60;;;;;;;14.07;60.33;102015.06;5007751;28;20036;-75
2022/10/04 06:07:53;;;;;;;26.42;24.67;;;;;;;14.07;60.20;102016.94;5000394;28;20044;-76
2022/10/04 06:10:49;;;;;;;28.15;26.30;;;;;;;14.05;60.07;102017.19;5006719;28;20040;-75
2022/10/04 06:13:45;;;;;;;25.83;24.08;;;;;;;14.03;60.39;102007.59;5007165;28;20037;-75
2022/10/04 06:16:43;;;;;;;27.88;25.73;;;;;;;14.02;60.56;102003.25;5008065;28;20025;-75
2022/10/04 06:19:52;;;;;;;27.48;25.42;;;;;;;14.00;60.37;102003.47;4983599;28;20124;-75
2022/10/04 06:22:20;;;;;;;27.10;25.35;;;;;;;13.99;60.13;102003.72;5007076;28;20030;-74
2022/10/04 06:25:02;;;;;;;26.25;24.50;;;;;;;13.96;60.21;102005.03;5002739;28;20037;-74
2022/10/04 06:27:40;;;;;;;29.38;27.27;;;;;;;13.95;60.47;102006.06;5003528;28;20498;-75
2022/10/04 06:30:18;;;;;;;26.08;24.27;;;;;;;13.95;60.44;102003.34;5004474;28;20460;-75
2022/10/04 06:33:24;;;;;;;27.00;24.23;;;;;;;13.95;60.45;102005.25;5006836;28;20117;-75
2022/10/04 06:36:20;;;;;;;26.58;24.88;;;;;;;13.93;60.38;102007.34;4971009;28;20506;-74
2022/10/04 06:38:55;;;;;;;28.90;26.50;;;;;;;13.91;60.31;102002.19;4999840;28;20042;-74
2022/10/04 06:41:35;;;;;;;27.77;26.08;;;;;;;13.90;60.48;101999.69;5007054;28;20091;-75
2022/10/04 06:44:19;;;;;;;26.73;24.60;;;;;;;13.89;60.23;101998.88;5007093;28;20485;-76
2022/10/04 06:46:47;;;;;;;26.00;23.85;;;;;;;13.89;60.37;101987.19;5001917;28;20192;-75
2022/10/04 06:49:34;;;;;;;26.58;24.98;;;;;;;13.88;60.50;101990.94;5005338;28;20034;-75
2022/10/04 06:52:33;;;;;;;26.70;24.30;;;;;;;13.87;60.55;101989.28;5005079;28;20041;-75
2022/10/04 06:55:32;;;;;;;26.52;23.10;;;;;;;13.85;60.45;101986.81;5004829;28;20042;-77
2022/10/04 06:58:08;;;;;;;23.95;22.35;;;;;;;13.83;60.33;101997.91;5000601;28;20061;-77
2022/10/04 07:01:13;;;;;;;27.05;25.13;;;;;;;13.82;60.47;101996.25;5004800;28;20056;-76
2022/10/04 07:03:48;;;;;;;26.02;24.15;;;;;;;13.82;60.25;101993.53;5004819;28;20042;-77
2022/10/04 07:06:23;;;;;;;24.35;22.65;;;;;;;13.80;60.08;101978.53;5006268;28;20030;-76
2022/10/04 07:08:58;;;;;;;25.20;23.42;;;;;;;13.80;60.35;101989.38;5005209;28;20038;-75
2022/10/04 07:11:31;;;;;;;28.05;25.90;;;;;;;13.79;60.58;101985.84;5002992;28;20026;-77
2022/10/04 07:14:02;;;;;;;28.10;25.10;;;;;;;13.80;60.45;101983.97;4999978;28;20038;-79
2022/10/04 07:16:54;;;;;;;25.58;23.88;;;;;;;13.79;60.65;101977.72;5002061;28;20061;-75
2022/10/04 07:19:48;;;;;;;28.30;26.10;;;;;;;13.78;60.32;101992.34;5000331;28;20034;-77
2022/10/04 07:23:13;;;;;;;25.05;23.40;;;;;;;13.76;60.46;101980.91;4997115;28;20502;-75
2022/10/04 07:25:53;;;;;;;25.42;23.75;;;;;;;13.76;60.45;101986.31;4999718;28;20053;-76
2022/10/04 07:31:21;;;;;;;25.20;23.58;;;;;;;13.73;60.43;101992.19;5006379;28;20053;-78
2022/10/04 07:34:12;;;;;;;25.15;23.38;;;;;;;13.73;60.57;101991.38;5014402;28;20030;-78
2022/10/04 07:36:56;;;;;;;29.48;23.40;;;;;;;13.72;60.36;101993.28;5013130;28;20087;-78
2022/10/04 07:39:28;;;;;;;25.52;23.88;;;;;;;13.71;60.34;101986.19;5007017;28;20415;-75
2022/10/04 07:42:18;;;;;;;25.20;23.40;;;;;;;13.70;60.39;101987.25;5011369;28;20103;-77
2022/10/04 07:44:53;;;;;;;25.98;23.73;;;;;;;13.69;60.17;101972.03;5009812;28;20025;-76
2022/10/04 07:47:25;;;;;;;25.63;24.02;;;;;;;13.70;60.40;101978.28;5009643;28;20038;-75
2022/10/04 07:49:52;;;;;;;27.75;25.85;;;;;;;13.69;60.40;101982.88;5007431;28;20038;-78
2022/10/04 07:52:43;;;;;;;27.55;25.23;;;;;;;13.69;60.70;101979.34;5010950;28;20474;-75
2022/10/04 07:55:11;;;;;;;25.02;23.42;;;;;;;13.68;60.51;101983.94;5005540;28;20836;-78
2022/10/04 07:57:50;;;;;;;27.00;25.05;;;;;;;13.67;60.68;101974.13;5008025;28;20106;-75
2022/10/04 08:00:18;;;;;;;23.88;22.27;;;;;;;13.68;60.64;101972.25;5012686;28;20526;-75
2022/10/04 08:02:50;;;;;;;26.50;24.65;;;;;;;13.67;60.38;101966.00;5010748;28;20467;-75
2022/10/04 08:05:34;;;;;;;26.38;24.33;;;;;;;13.66;60.35;101971.66;5015326;28;20116;-75
2022/10/04 08:08:05;;;;;;;23.83;22.38;;;;;;;13.65;60.78;101976.25;5010577;28;20076;-75
2022/10/04 08:10:49;;;;;;;26.75;25.00;;;;;;;13.64;60.80;101975.44;5010573;28;20041;-77
2022/10/04 08:13:20;;;;;;;25.38;23.58;;;;;;;13.64;60.63;101980.88;5008718;28;20374;-78
2022/10/04 08:15:47;;;;;;;24.90;23.10;;;;;;;13.64;60.73;101977.31;5006129;28;20030;-78
2022/10/04 08:18:33;;;;;;;25.30;23.45;;;;;;;13.63;60.60;101976.50;5006817;28;20095;-77
2022/10/04 08:21:03;;;;;;;24.55;23.08;;;;;;;13.63;60.73;101986.50;5009448;28;20444;-76
2022/10/04 08:23:58;;;;;;;25.75;24.15;;;;;;;13.63;60.88;101979.22;5002181;28;20483;-75
2022/10/04 08:26:31;;;;;;;25.58;23.65;;;;;;;13.63;60.90;101981.09;5004381;28;20072;-75
2022/10/04 08:32:28;;;;;;;24.60;22.90;;;;;;;13.60;60.91;101971.53;5026099;28;20045;-78
2022/10/04 08:35:20;;;;;;;27.58;25.60;;;;;;;13.61;60.88;101988.66;5025251;28;20029;-74
2022/10/04 08:38:20;;;;;;;25.75;24.13;;;;;;;13.60;61.06;101978.84;5006382;28;20042;-76
2022/10/04 08:40:49;;;;;;;27.17;24.75;;;;;;;13.59;60.69;101977.19;5004887;28;20108;-75
2022/10/04 08:43:41;;;;;;;24.80;22.90;;;;;;;13.59;61.25;101986.16;5006835;28;20037;-76
2022/10/04 08:46:12;;;;;;;25.65;23.80;;;;;;;13.59;61.06;101983.44;5004120;28;20037;-77
2022/10/04 08:49:04;;;;;;;27.52;25.38;;;;;;;13.60;60.98;101987.00;5007266;28;20516;-78
2022/10/04 08:51:50;;;;;;;25.38;23.58;;;;;;;13.60;60.93;101984.28;5003273;28;20052;-79
2022/10/04 08:54:55;;;;;;;27.75;24.98;;;;;;;13.60;61.02;101987.00;5001459;28;20041;-79
2022/10/04 08:57:26;;;;;;;29.30;27.02;;;;;;;13.60;60.87;101990.53;4984728;28;20520;-78
2022/10/04 09:00:18;;;;;;;27.30;24.90;;;;;;;13.60;61.08;101992.41;4998948;28;20050;-77
2022/10/04 09:03:25;;;;;;;26.70;24.63;;;;;;;13.59;61.43;101988.88;5001162;28;20092;-78
2022/10/04 09:06:12;;;;;;;27.20;25.05;;;;;;;13.59;61.21;101986.16;5001793;28;20382;-79
2022/10/04 09:09:15;;;;;;;28.67;26.45;;;;;;;13.61;61.28;101981.34;5006010;28;20069;-77
2022/10/04 09:12:07;;;;;;;26.25;24.25;;;;;;;13.60;61.22;101974.22;5001700;28;20104;-79
2022/10/04 09:15:13;;;;;;;29.35;26.73;;;;;;;13.60;61.21;101971.53;5006691;28;20864;-78
2022/10/04 09:18:09;;;;;;;26.30;24.08;;;;;;;13.61;61.33;101983.22;4996810;28;20104;-79
2022/10/04 09:20:44;;;;;;;27.02;24.75;;;;;;;13.61;61.43;101978.63;5003437;28;20026;-78
2022/10/04 09:23:32;;;;;;;26.73;24.42;;;;;;;13.63;61.44;101978.38;5005198;28;20050;-80
2022/10/04 09:26:12;;;;;;;25.63;23.58;;;;;;;13.64;61.59;101978.16;5005297;28;20060;-79
2022/10/04 09:28:58;;;;;;;25.92;24.00;;;;;;;13.64;61.39;101974.63;5003731;28;20052;-77
2022/10/04 09:31:32;;;;;;;25.67;23.50;;;;;;;13.64;61.44;101961.84;5007643;28;20494;-78
2022/10/04 09:34:34;;;;;;;23.67;22.27;;;;;;;13.65;61.71;101962.69;5006349;28;20040;-77
2022/10/04 09:37:20;;;;;;;27.77;24.85;;;;;;;13.67;61.26;101968.72;5007519;28;20121;-78
2022/10/04 09:40:13;;;;;;;26.63;24.63;;;;;;;13.67;61.51;101955.13;5003102;28;20397;-77
2022/10/04 09:43:16;;;;;;;26.65;24.83;;;;;;;13.68;61.48;101967.63;5003791;28;20125;-77
2022/10/04 09:46:15;;;;;;;28.45;26.27;;;;;;;13.69;61.63;101972.03;5002418;28;20030;-77
2022/10/04 09:48:59;;;;;;;;;;;;;;;13.70;61.54;101973.66;4997466;28;20091;-77
2022/10/04 09:52:02;;;;;;;26.52;24.50;;;;;;;13.69;61.58;101968.50;5002104;28;19932;-76
2022/10/04 09:54:55;;;;;;;23.65;21.75;;;;;;;13.69;61.44;101965.78;5000598;28;20084;-76
2022/10/04 09:57:58;;;;;;;28.42;26.00;;;;;;;13.71;61.70;101964.47;5001916;28;20493;-77
2022/10/04 10:00:37;;;;;;;24.48;22.95;;;;;;;13.71;61.55;101956.34;5005870;28;20084;-77
2022/10/04 10:03:42;;;;;;;25.00;22.80;;;;;;;13.73;61.72;101962.34;5005001;28;20091;-77
2022/10/04 10:06:22;;;;;;;27.63;25.60;;;;;;;13.75;61.60;101962.09;4996181;28;20038;-76
2022/10/04 10:09:12;;;;;;;28.52;26.23;;;;;;;13.77;61.76;101960.81;4995646;28;20030;-77
2022/10/04 10:14:52;;;;;;;27.20;25.33;;;;;;;13.80;62.17;101946.75;5002154;28;20508;-77
2022/10/04 10:17:23;;;;;;;25.55;23.95;;;;;;;13.82;61.81;101944.63;5007124;28;20099;-77
2022/10/04 10:20:00;;;;;;;30.38;27.70;;;;;;;13.83;61.95;101940.88;5002627;28;20129;-77
2022/10/04 10:22:34;;;;;;;26.00;24.00;;;;;;;13.86;61.96;101936.88;5003881;28;20441;-77
2022/10/04 10:25:20;;;;;;;27.77;25.23;;;;;;;13.88;62.07;101934.72;5005270;28;20129;-77
2022/10/04 10:28:33;;;;;;;30.58;26.58;;;;;;;13.90;62.31;101935.31;5001368;28;20466;-78
2022/10/04 10:31:14;;;;;;;28.98;26.48;;;;;;;13.92;62.63;101946.78;4999555;28;20141;-76
2022/10/04 10:33:59;;;;;;;28.40;26.42;;;;;;;13.94;62.61;101943.84;5002923;28;20594;-78
2022/10/04 10:36:43;;;;;;;26.70;24.42;;;;;;;13.95;62.49;101946.31;5006183;28;20103;-76
2022/10/04 10:39:20;;;;;;;25.33;23.67;;;;;;;13.96;62.37;101941.69;5002595;28;20034;-76
2022/10/04 10:42:05;;;;;;;28.73;26.38;;;;;;;13.98;62.33;101953.97;5006123;28;20505;-76
2022/10/04 10:44:40;;;;;;;27.27;25.38;;;;;;;13.98;62.61;101951.25;4998429;28;20121;-77
2022/10/04 10:47:41;;;;;;;27.98;25.48;;;;;;;14.00;62.65;101954.56;4998313;28;20034;-76
2022/10/04 10:50:23;;;;;;;25.80;23.73;;;;;;;14.02;62.75;101947.00;4992830;28;20041;-76
2022/10/04 10:52:58;;;;;;;25.45;23.85;;;;;;;14.03;62.56;101942.41;5005230;28;20554;-77
2022/10/04 10:55:43;;;;;;;26.40;24.52;;;;;;;14.05;62.56;101932.13;5000413;28;20121;-77
2022/10/04 10:58:43;;;;;;;26.48;24.50;;;;;;;14.07;62.67;101932.72;4998934;28;20108;-80
2022/10/04 11:01:40;;;;;;;27.08;24.77;;;;;;;14.09;62.52;101929.78;5010574;28;20029;-77
2022/10/04 11:04:15;;;;;;;25.70;24.17;;;;;;;14.10;62.59;101915.94;5007918;28;20034;-75
2022/10/04 11:06:59;;;;;;;27.65;25.67;;;;;;;14.12;62.74;101916.53;5003782;28;20040;-75
2022/10/04 11:09:50;;;;;;;27.10;25.35;;;;;;;14.14;62.57;101919.84;5009085;28;20026;-76
2022/10/04 11:12:46;;;;;;;27.50;25.20;;;;;;;14.17;62.73;101921.25;5001611;28;20116;-76
2022/10/04 11:15:30;;;;;;;26.77;25.10;;;;;;;14.20;62.74;101918.88;5009128;28;20130;-77
2022/10/04 11:18:01;;;;;;;30.88;28.27;;;;;;;14.22;62.70;101908.59;5002260;28;20042;-77
2022/10/04 11:20:51;;;;;;;27.88;25.83;;;;;;;14.25;62.90;101908.13;5004660;28;20034;-77
2022/10/04 11:23:50;;;;;;;25.75;23.83;;;;;;;14.28;62.72;101907.63;5000771;28;20140;-77
2022/10/04 11:26:37;;;;;;;25.13;23.35;;;;;;;14.31;62.91;101902.78;5003560;28;20031;-76
2022/10/04 11:29:38;;;;;;;28.52;26.27;;;;;;;14.33;62.83;101903.38;5003486;28;20104;-79
2022/10/04 11:32:40;;;;;;;26.83;24.55;;;;;;;14.36;62.67;101900.19;4998028;28;20085;-76
2022/10/04 11:35:49;;;;;;;25.50;23.75;;;;;;;14.40;62.86;101904.09;5008677;28;20077;-76
2022/10/04 11:38:26;;;;;;;27.38;25.60;;;;;;;14.42;62.82;101900.06;4986016;28;20038;-76
2022/10/04 11:41:06;;;;;;;28.13;26.23;;;;;;;14.45;63.00;101891.44;4999518;28;20040;-78
2022/10/04 11:43:51;;;;;;;27.98;26.17;;;;;;;14.47;62.86;101883.84;5003908;28;20030;-77
2022/10/04 11:46:19;;;;;;;27.48;25.42;;;;;;;14.50;62.73;101888.81;5004593;28;20056;-75
2022/10/04 11:49:07;;;;;;;29.65;27.75;;;;;;;14.54;62.85;101888.34;5000607;28;20041;-75
2022/10/04 11:52:11;;;;;;;26.27;24.57;;;;;;;14.57;62.69;101890.63;5005260;28;20038;-75
2022/10/04 11:54:46;;;;;;;26.58;24.60;;;;;;;14.59;62.69;101888.44;5007775;28;20064;-76
2022/10/04 11:57:56;;;;;;;26.45;24.50;;;;;;;14.63;62.82;101887.72;5007662;28;20113;-76
2022/10/04 12:00:25;;;;;;;27.48;25.42;;;;;;;14.66;62.83;101892.69;4991013;28;20046;-76
2022/10/04 12:02:53;;;;;;;28.73;26.80;;;;;;;14.69;62.71;101899.53;5005671;28;20045;-77
2022/10/04 12:05:19;;;;;;;;;;;;;;;14.71;62.80;101887.34;5006174;28;20037;-76
2022/10/04 12:07:57;;;;;;;26.17;24.55;;;;;;;14.74;62.66;101891.50;5004114;28;19973;-76
2022/10/04 12:10:36;;;;;;;26.98;25.27;;;;;;;14.76;62.82;101893.97;5002158;28;20034;-76
2022/10/04 12:13:38;;;;;;;27.40;25.30;;;;;;;14.80;62.89;101889.69;5003169;28;20413;-76
2022/10/04 12:16:28;;;;;;;26.95;24.95;;;;;;;14.82;62.37;101888.38;5004064;28;20083;-77
2022/10/04 12:19:14;;;;;;;28.55;26.50;;;;;;;14.86;62.29;101884.09;4999417;28;20038;-76
2022/10/04 12:21:45;;;;;;;28.48;26.52;;;;;;;14.90;62.42;101879.00;5007974;28;20033;-76